Portada
METAR-TAF:

METAR-TAF

Aeroports :

Aeroport de Poznań-Ławica

Poznań, Polònia

latitud: 52-25N, longitud: 016-50E, altitud: 86 m

Observació

L'informe es va fer fa 16 minuts, a les 02:00 UTC
Vent 4 kt del Nord/Nord-Est
Temperatura 12°C
Humitat 71%
Pressió 1020 hPa
Visibilitat 10 km o més
sense núvols per sota de 1500 mi sense presència de cumulonimbus.

METAR: EPPO 160200Z 02004KT CAVOK 12/07 Q1020

Hora: 04:16 (02:16 UTC)

Pronòstic

L'informe es va fer fa 2 hores i 46 minuts, a les 23:30 UTC
Pronòstic vàlid del 16 a les 00 UTC al 16 a les 24 UTC
Vent 10 kt del Nord
Visibilitat 10 km o més
Cel ennuvolat a una alçada de 3000 ft
Evolucionant progressivament
l' 16 a les 03 UTC al 16 a les 06 UTC
Vent 6 kt del Est

TAF: EPPO 152330Z 1600/1624 01010KT 9999 BKN030 BECMG 1603/1606 09006KT

Observacions i pronòstics meteorològics de més de 4000 aeroports (METAR i TAF).

Les estacions disponibles són els punts grocs i vermells al mapa.

Posi el ratolí al punt desitjat per veure el nom de l'estació.

Feu clic per veure les observacions i els pronòstics meteorològics.

Per canviar el mapa: feu clic els botons verds amb una creu de color negre per apropar; al botó verd amb un guió per allunyar la imatge; o en les fletxes verdes per a mapes adjacents.


METAR-TAF: